sensor_id;sensor_type;location;lat;lon;timestamp;pressure;altitude;pressure_sealevel;temperature;humidity
44297;BME280;51842;47.450;8.654;2024-02-28T00:01:07;95267.22;;;6.05;100.00
44297;BME280;51842;47.450;8.654;2024-02-28T00:03:33;95268.28;;;6.03;100.00
44297;BME280;51842;47.450;8.654;2024-02-28T00:05:59;95271.41;;;6.00;100.00
44297;BME280;51842;47.450;8.654;2024-02-28T00:08:25;95274.78;;;5.96;100.00
44297;BME280;51842;47.450;8.654;2024-02-28T00:10:50;95281.56;;;5.92;100.00
44297;BME280;51842;47.450;8.654;2024-02-28T00:13:16;95277.50;;;5.84;100.00
44297;BME280;51842;47.450;8.654;2024-02-28T00:15:42;95275.56;;;5.79;100.00
44297;BME280;51842;47.450;8.654;2024-02-28T00:18:08;95276.44;;;5.85;100.00
44297;BME280;51842;47.450;8.654;2024-02-28T00:20:34;95279.97;;;5.91;100.00
44297;BME280;51842;47.450;8.654;2024-02-28T00:23:00;95274.22;;;5.94;100.00
44297;BME280;51842;47.450;8.654;2024-02-28T00:25:26;95275.28;;;5.93;100.00
44297;BME280;51842;47.450;8.654;2024-02-28T00:27:52;95276.63;;;5.95;100.00
44297;BME280;51842;47.450;8.654;2024-02-28T00:30:18;95283.25;;;5.98;100.00
44297;BME280;51842;47.450;8.654;2024-02-28T00:32:44;95284.06;;;5.98;100.00
44297;BME280;51842;47.450;8.654;2024-02-28T00:35:09;95286.47;;;6.00;100.00
44297;BME280;51842;47.450;8.654;2024-02-28T00:37:35;95288.06;;;6.01;100.00
44297;BME280;51842;47.450;8.654;2024-02-28T00:40:01;95289.91;;;6.00;100.00
44297;BME280;51842;47.450;8.654;2024-02-28T00:42:27;95299.69;;;6.00;100.00
44297;BME280;51842;47.450;8.654;2024-02-28T00:44:53;95297.53;;;5.97;100.00
44297;BME280;51842;47.450;8.654;2024-02-28T00:47:19;95297.84;;;6.00;100.00
44297;BME280;51842;47.450;8.654;2024-02-28T00:49:44;95302.81;;;5.97;100.00
44297;BME280;51842;47.450;8.654;2024-02-28T00:52:10;95307.06;;;5.98;100.00
44297;BME280;51842;47.450;8.654;2024-02-28T00:54:36;95305.47;;;5.97;100.00
44297;BME280;51842;47.450;8.654;2024-02-28T00:57:03;95299.13;;;5.98;100.00
44297;BME280;51842;47.450;8.654;2024-02-28T00:59:28;95310.75;;;5.97;100.00
44297;BME280;51842;47.450;8.654;2024-02-28T01:01:54;95313.97;;;5.99;100.00
44297;BME280;51842;47.450;8.654;2024-02-28T01:04:20;95313.41;;;5.97;100.00
44297;BME280;51842;47.450;8.654;2024-02-28T01:06:46;95312.59;;;5.96;100.00
44297;BME280;51842;47.450;8.654;2024-02-28T01:09:12;95314.09;;;5.92;100.00
44297;BME280;51842;47.450;8.654;2024-02-28T01:11:37;95311.47;;;5.92;100.00
44297;BME280;51842;47.450;8.654;2024-02-28T01:14:04;95309.41;;;5.94;100.00
44297;BME280;51842;47.450;8.654;2024-02-28T01:16:30;95313.88;;;5.94;100.00
44297;BME280;51842;47.450;8.654;2024-02-28T01:18:56;95307.00;;;5.93;100.00
44297;BME280;51842;47.450;8.654;2024-02-28T01:21:22;95305.69;;;5.95;100.00
44297;BME280;51842;47.450;8.654;2024-02-28T01:23:48;95311.25;;;5.94;100.00
44297;BME280;51842;47.450;8.654;2024-02-28T01:26:14;95311.25;;;5.94;100.00
44297;BME280;51842;47.450;8.654;2024-02-28T01:28:40;95307.47;;;5.90;100.00
44297;BME280;51842;47.450;8.654;2024-02-28T01:31:08;95312.03;;;5.94;100.00
44297;BME280;51842;47.450;8.654;2024-02-28T01:33:34;95310.97;;;5.95;100.00
44297;BME280;51842;47.450;8.654;2024-02-28T01:36:00;95315.25;;;5.96;100.00
44297;BME280;51842;47.450;8.654;2024-02-28T01:38:25;95314.78;;;5.99;100.00
44297;BME280;51842;47.450;8.654;2024-02-28T01:40:52;95312.91;;;6.00;100.00
44297;BME280;51842;47.450;8.654;2024-02-28T01:43:18;95321.41;;;6.02;100.00
44297;BME280;51842;47.450;8.654;2024-02-28T01:45:44;95314.19;;;5.97;100.00
44297;BME280;51842;47.450;8.654;2024-02-28T01:48:12;95319.75;;;5.96;100.00
44297;BME280;51842;47.450;8.654;2024-02-28T01:50:38;95313.53;;;5.90;100.00
44297;BME280;51842;47.450;8.654;2024-02-28T01:53:09;95324.81;;;5.86;100.00
44297;BME280;51842;47.450;8.654;2024-02-28T01:55:37;95322.66;;;5.83;100.00
44297;BME280;51842;47.450;8.654;2024-02-28T01:58:06;95315.88;;;5.87;100.00
44297;BME280;51842;47.450;8.654;2024-02-28T02:00:37;95323.00;;;5.86;100.00
44297;BME280;51842;47.450;8.654;2024-02-28T02:03:04;95320.41;;;5.91;100.00
44297;BME280;51842;47.450;8.654;2024-02-28T02:05:30;95323.84;;;5.92;100.00
44297;BME280;51842;47.450;8.654;2024-02-28T02:07:58;95312.28;;;5.93;100.00
44297;BME280;51842;47.450;8.654;2024-02-28T02:10:28;95323.84;;;5.92;100.00
44297;BME280;51842;47.450;8.654;2024-02-28T02:12:54;95328.94;;;5.93;100.00
44297;BME280;51842;47.450;8.654;2024-02-28T02:15:20;95330.31;;;5.96;100.00
44297;BME280;51842;47.450;8.654;2024-02-28T02:17:46;95326.50;;;5.92;100.00
44297;BME280;51842;47.450;8.654;2024-02-28T02:20:15;95325.66;;;5.86;100.00
44297;BME280;51842;47.450;8.654;2024-02-28T02:22:41;95329.16;;;5.92;100.00
44297;BME280;51842;47.450;8.654;2024-02-28T02:25:08;95331.59;;;5.93;100.00
44297;BME280;51842;47.450;8.654;2024-02-28T02:27:34;95337.19;;;5.97;100.00
44297;BME280;51842;47.450;8.654;2024-02-28T02:29:59;95328.69;;;5.95;100.00
44297;BME280;51842;47.450;8.654;2024-02-28T02:32:25;95336.16;;;5.98;100.00
44297;BME280;51842;47.450;8.654;2024-02-28T02:34:51;95328.22;;;5.98;100.00
44297;BME280;51842;47.450;8.654;2024-02-28T02:37:17;95334.38;;;6.03;100.00
44297;BME280;51842;47.450;8.654;2024-02-28T02:39:43;95328.03;;;6.05;100.00
44297;BME280;51842;47.450;8.654;2024-02-28T02:42:09;95328.63;;;6.07;100.00
44297;BME280;51842;47.450;8.654;2024-02-28T02:44:34;95328.69;;;5.95;100.00
44297;BME280;51842;47.450;8.654;2024-02-28T02:47:00;95333.91;;;5.90;100.00
44297;BME280;51842;47.450;8.654;2024-02-28T02:49:26;95331.78;;;5.92;100.00
44297;BME280;51842;47.450;8.654;2024-02-28T02:51:52;95335.81;;;5.94;100.00
44297;BME280;51842;47.450;8.654;2024-02-28T02:54:17;95336.16;;;5.98;100.00
44297;BME280;51842;47.450;8.654;2024-02-28T02:56:43;95330.38;;;6.01;100.00
44297;BME280;51842;47.450;8.654;2024-02-28T02:59:10;95335.19;;;6.04;100.00
44297;BME280;51842;47.450;8.654;2024-02-28T03:01:37;95331.50;;;6.05;100.00
44297;BME280;51842;47.450;8.654;2024-02-28T03:04:04;95335.50;;;6.08;100.00
44297;BME280;51842;47.450;8.654;2024-02-28T03:06:30;95329.41;;;6.07;100.00
44297;BME280;51842;47.450;8.654;2024-02-28T03:08:55;95331.03;;;6.08;100.00
44297;BME280;51842;47.450;8.654;2024-02-28T03:11:21;95336.31;;;6.08;100.00
44297;BME280;51842;47.450;8.654;2024-02-28T03:13:47;95335.50;;;6.08;100.00
44297;BME280;51842;47.450;8.654;2024-02-28T03:16:13;95347.13;;;6.07;100.00
44297;BME280;51842;47.450;8.654;2024-02-28T03:18:39;95345.75;;;6.04;100.00
44297;BME280;51842;47.450;8.654;2024-02-28T03:21:04;95342.56;;;6.02;100.00
44297;BME280;51842;47.450;8.654;2024-02-28T03:23:31;95353.69;;;6.04;100.00
44297;BME280;51842;47.450;8.654;2024-02-28T03:25:57;95358.75;;;6.06;100.00
44297;BME280;51842;47.450;8.654;2024-02-28T03:28:23;95365.41;;;6.08;100.00
44297;BME280;51842;47.450;8.654;2024-02-28T03:30:49;95376.00;;;6.08;100.00
44297;BME280;51842;47.450;8.654;2024-02-28T03:33:14;95365.81;;;6.00;100.00
44297;BME280;51842;47.450;8.654;2024-02-28T03:35:40;95371.66;;;6.02;100.00
44297;BME280;51842;47.450;8.654;2024-02-28T03:38:06;95381.56;;;5.95;100.00
44297;BME280;51842;47.450;8.654;2024-02-28T03:40:32;95387.91;;;5.94;100.00
44297;BME280;51842;47.450;8.654;2024-02-28T03:42:58;95383.41;;;5.94;100.00
44297;BME280;51842;47.450;8.654;2024-02-28T03:45:28;95378.69;;;5.96;100.00
44297;BME280;51842;47.450;8.654;2024-02-28T03:47:57;95386.94;;;6.00;100.00
44297;BME280;51842;47.450;8.654;2024-02-28T03:50:23;95397.06;;;6.03;100.00
44297;BME280;51842;47.450;8.654;2024-02-28T03:52:48;95401.28;;;6.04;100.00
44297;BME280;51842;47.450;8.654;2024-02-28T03:55:16;95405.47;;;6.00;100.00
44297;BME280;51842;47.450;8.654;2024-02-28T03:57:42;95411.22;;;5.97;100.00
44297;BME280;51842;47.450;8.654;2024-02-28T04:00:10;95416.03;;;6.00;100.00
44297;BME280;51842;47.450;8.654;2024-02-28T04:02:37;95405.69;;;5.98;100.00
44297;BME280;51842;47.450;8.654;2024-02-28T04:05:03;95400.66;;;5.97;100.00
44297;BME280;51842;47.450;8.654;2024-02-28T04:07:29;95404.56;;;5.94;100.00
44297;BME280;51842;47.450;8.654;2024-02-28T04:09:55;95409.50;;;5.91;100.00
44297;BME280;51842;47.450;8.654;2024-02-28T04:12:21;95408.59;;;5.97;100.00
44297;BME280;51842;47.450;8.654;2024-02-28T04:14:46;95399.84;;;5.96;100.00
44297;BME280;51842;47.450;8.654;2024-02-28T04:17:12;95405.38;;;5.95;100.00
44297;BME280;51842;47.450;8.654;2024-02-28T04:19:38;95401.13;;;5.94;100.00
44297;BME280;51842;47.450;8.654;2024-02-28T04:22:05;95412.28;;;5.96;100.00
44297;BME280;51842;47.450;8.654;2024-02-28T04:24:31;95409.94;;;5.99;100.00
44297;BME280;51842;47.450;8.654;2024-02-28T04:26:58;95414.66;;;5.97;100.00
44297;BME280;51842;47.450;8.654;2024-02-28T04:29:25;95410.19;;;5.98;100.00
44297;BME280;51842;47.450;8.654;2024-02-28T04:31:51;95408.09;;;6.00;100.00
44297;BME280;51842;47.450;8.654;2024-02-28T04:34:17;95421.31;;;6.00;100.00
44297;BME280;51842;47.450;8.654;2024-02-28T04:36:42;95420.53;;;5.99;100.00
44297;BME280;51842;47.450;8.654;2024-02-28T04:39:08;95422.59;;;5.97;100.00
44297;BME280;51842;47.450;8.654;2024-02-28T04:41:34;95431.09;;;5.99;100.00
44297;BME280;51842;47.450;8.654;2024-02-28T04:44:00;95424.19;;;5.98;100.00
44297;BME280;51842;47.450;8.654;2024-02-28T04:46:26;95427.66;;;5.99;100.00
44297;BME280;51842;47.450;8.654;2024-02-28T04:48:52;95432.69;;;6.00;100.00
44297;BME280;51842;47.450;8.654;2024-02-28T04:51:17;95435.81;;;5.97;100.00
44297;BME280;51842;47.450;8.654;2024-02-28T04:53:44;95435.03;;;5.97;100.00
44297;BME280;51842;47.450;8.654;2024-02-28T04:56:10;95433.75;;;5.99;100.00
44297;BME280;51842;47.450;8.654;2024-02-28T04:58:39;95440.78;;;5.94;100.00
44297;BME280;51842;47.450;8.654;2024-02-28T05:01:04;95437.88;;;5.95;100.00
44297;BME280;51842;47.450;8.654;2024-02-28T05:03:30;95442.63;;;5.93;100.00
44297;BME280;51842;47.450;8.654;2024-02-28T05:05:56;95452.97;;;5.95;100.00
44297;BME280;51842;47.450;8.654;2024-02-28T05:08:22;95451.22;;;5.89;100.00
44297;BME280;51842;47.450;8.654;2024-02-28T05:10:50;95453.66;;;5.90;100.00
44297;BME280;51842;47.450;8.654;2024-02-28T05:13:16;95457.56;;;5.88;100.00
44297;BME280;51842;47.450;8.654;2024-02-28T05:15:42;95464.72;;;5.87;100.00
44297;BME280;51842;47.450;8.654;2024-02-28T05:18:08;95461.81;;;5.89;100.00
44297;BME280;51842;47.450;8.654;2024-02-28T05:20:33;95469.53;;;5.90;100.00
44297;BME280;51842;47.450;8.654;2024-02-28T05:22:59;95472.06;;;5.85;100.00
44297;BME280;51842;47.450;8.654;2024-02-28T05:25:25;95476.44;;;5.79;100.00
44297;BME280;51842;47.450;8.654;2024-02-28T05:27:51;95483.81;;;5.77;100.00
44297;BME280;51842;47.450;8.654;2024-02-28T05:30:16;95476.38;;;5.74;99.78
44297;BME280;51842;47.450;8.654;2024-02-28T05:32:42;95480.75;;;5.69;99.33
44297;BME280;51842;47.450;8.654;2024-02-28T05:35:08;95477.63;;;5.72;98.68
44297;BME280;51842;47.450;8.654;2024-02-28T05:37:37;95482.34;;;5.70;98.77
44297;BME280;51842;47.450;8.654;2024-02-28T05:40:04;95478.44;;;5.72;98.20
44297;BME280;51842;47.450;8.654;2024-02-28T05:42:32;95484.78;;;5.71;98.18
44297;BME280;51842;47.450;8.654;2024-02-28T05:44:57;95485.00;;;5.70;97.64
44297;BME280;51842;47.450;8.654;2024-02-28T05:47:23;95484.19;;;5.69;98.13
44297;BME280;51842;47.450;8.654;2024-02-28T05:49:49;95489.16;;;5.66;98.38
44297;BME280;51842;47.450;8.654;2024-02-28T05:52:15;95493.41;;;5.67;98.60
44297;BME280;51842;47.450;8.654;2024-02-28T05:54:41;95491.78;;;5.66;98.63
44297;BME280;51842;47.450;8.654;2024-02-28T05:57:06;95497.88;;;5.66;98.62
44297;BME280;51842;47.450;8.654;2024-02-28T05:59:32;95502.38;;;5.66;98.71
44297;BME280;51842;47.450;8.654;2024-02-28T06:01:58;95512.94;;;5.66;99.33
44297;BME280;51842;47.450;8.654;2024-02-28T06:04:24;95520.75;;;5.61;99.40
44297;BME280;51842;47.450;8.654;2024-02-28T06:06:50;95522.47;;;5.67;99.88
44297;BME280;51842;47.450;8.654;2024-02-28T06:09:16;95524.31;;;5.66;99.32
44297;BME280;51842;47.450;8.654;2024-02-28T06:11:42;95536.41;;;5.62;98.62
44297;BME280;51842;47.450;8.654;2024-02-28T06:14:07;95544.00;;;5.59;98.07
44297;BME280;51842;47.450;8.654;2024-02-28T06:16:34;95542.03;;;5.54;97.84
44297;BME280;51842;47.450;8.654;2024-02-28T06:19:00;95547.31;;;5.54;98.08
44297;BME280;51842;47.450;8.654;2024-02-28T06:21:26;95550.44;;;5.51;98.14
44297;BME280;51842;47.450;8.654;2024-02-28T06:23:52;95560.19;;;5.50;97.81
44297;BME280;51842;47.450;8.654;2024-02-28T06:26:18;95557.22;;;5.47;98.70
44297;BME280;51842;47.450;8.654;2024-02-28T06:28:44;95562.50;;;5.47;98.08
44297;BME280;51842;47.450;8.654;2024-02-28T06:31:17;95564.56;;;5.45;98.13
44297;BME280;51842;47.450;8.654;2024-02-28T06:33:44;95568.25;;;5.44;98.09
44297;BME280;51842;47.450;8.654;2024-02-28T06:36:10;95572.94;;;5.42;98.34
44297;BME280;51842;47.450;8.654;2024-02-28T06:38:36;95579.06;;;5.42;97.73
44297;BME280;51842;47.450;8.654;2024-02-28T06:41:04;95582.72;;;5.41;97.70
44297;BME280;51842;47.450;8.654;2024-02-28T06:43:34;95578.94;;;5.37;97.65
44297;BME280;51842;47.450;8.654;2024-02-28T06:46:01;95588.72;;;5.37;97.95
44297;BME280;51842;47.450;8.654;2024-02-28T06:48:28;95589.16;;;5.33;98.34
44297;BME280;51842;47.450;8.654;2024-02-28T06:50:55;95595.47;;;5.32;97.64
44297;BME280;51842;47.450;8.654;2024-02-28T06:53:21;95596.31;;;5.33;97.92
44297;BME280;51842;47.450;8.654;2024-02-28T06:55:46;95598.47;;;5.36;97.86
44297;BME280;51842;47.450;8.654;2024-02-28T06:58:15;95601.34;;;5.34;97.61
44297;BME280;51842;47.450;8.654;2024-02-28T07:00:41;95598.13;;;5.32;98.21
44297;BME280;51842;47.450;8.654;2024-02-28T07:03:07;95598.56;;;5.29;98.36
44297;BME280;51842;47.450;8.654;2024-02-28T07:05:33;95605.94;;;5.27;98.98
44297;BME280;51842;47.450;8.654;2024-02-28T07:08:00;95613.53;;;5.24;99.04
44297;BME280;51842;47.450;8.654;2024-02-28T07:10:26;95616.50;;;5.27;98.86
44297;BME280;51842;47.450;8.654;2024-02-28T07:12:52;95612.81;;;5.28;98.98
44297;BME280;51842;47.450;8.654;2024-02-28T07:15:18;95621.53;;;5.29;99.37
44297;BME280;51842;47.450;8.654;2024-02-28T07:17:47;95621.44;;;5.24;99.49
44297;BME280;51842;47.450;8.654;2024-02-28T07:20:13;95621.09;;;5.20;99.54
44297;BME280;51842;47.450;8.654;2024-02-28T07:22:42;95616.38;;;5.22;99.86
44297;BME280;51842;47.450;8.654;2024-02-28T07:25:08;95622.72;;;5.21;99.90
44297;BME280;51842;47.450;8.654;2024-02-28T07:27:34;95620.06;;;5.21;100.00
44297;BME280;51842;47.450;8.654;2024-02-28T07:30:02;95619.25;;;5.21;99.33
44297;BME280;51842;47.450;8.654;2024-02-28T07:32:29;95622.38;;;5.18;99.01
44297;BME280;51842;47.450;8.654;2024-02-28T07:35:03;95619.94;;;5.16;99.77
44297;BME280;51842;47.450;8.654;2024-02-28T07:37:29;95623.16;;;5.18;99.56
44297;BME280;51842;47.450;8.654;2024-02-28T07:39:55;95628.66;;;5.17;99.02
44297;BME280;51842;47.450;8.654;2024-02-28T07:42:21;95630.28;;;5.18;98.01
44297;BME280;51842;47.450;8.654;2024-02-28T07:44:46;95637.28;;;5.12;98.66
44297;BME280;51842;47.450;8.654;2024-02-28T07:47:12;95634.78;;;5.17;98.36
44297;BME280;51842;47.450;8.654;2024-02-28T07:49:40;95630.84;;;5.20;97.42
44297;BME280;51842;47.450;8.654;2024-02-28T07:52:06;95636.38;;;5.18;99.13
44297;BME280;51842;47.450;8.654;2024-02-28T07:54:31;95641.66;;;5.18;98.03
44297;BME280;51842;47.450;8.654;2024-02-28T07:56:57;95641.88;;;5.17;97.86
44297;BME280;51842;47.450;8.654;2024-02-28T07:59:23;95643.59;;;5.23;97.85
44297;BME280;51842;47.450;8.654;2024-02-28T08:01:49;95648.06;;;5.22;98.24
44297;BME280;51842;47.450;8.654;2024-02-28T08:04:14;95652.09;;;5.25;98.05
44297;BME280;51842;47.450;8.654;2024-02-28T08:06:41;95649.00;;;5.28;97.54
44297;BME280;51842;47.450;8.654;2024-02-28T08:09:06;95650.13;;;5.32;96.67
44297;BME280;51842;47.450;8.654;2024-02-28T08:11:33;95652.78;;;5.32;97.05
44297;BME280;51842;47.450;8.654;2024-02-28T08:13:58;95645.19;;;5.36;97.04
44297;BME280;51842;47.450;8.654;2024-02-28T08:16:24;95655.41;;;5.32;95.50
44297;BME280;51842;47.450;8.654;2024-02-28T08:18:50;95654.41;;;5.33;95.82
44297;BME280;51842;47.450;8.654;2024-02-28T08:21:16;95649.47;;;5.37;96.59
44297;BME280;51842;47.450;8.654;2024-02-28T08:23:43;95649.47;;;5.37;96.41
44297;BME280;51842;47.450;8.654;2024-02-28T08:26:10;95640.84;;;5.41;95.77
44297;BME280;51842;47.450;8.654;2024-02-28T08:28:36;95645.56;;;5.39;95.87
44297;BME280;51842;47.450;8.654;2024-02-28T08:31:01;95649.81;;;5.40;95.66
44297;BME280;51842;47.450;8.654;2024-02-28T08:33:27;95651.75;;;5.45;94.95
44297;BME280;51842;47.450;8.654;2024-02-28T08:35:53;95653.38;;;5.46;94.45
44297;BME280;51842;47.450;8.654;2024-02-28T08:38:19;95653.84;;;5.43;94.35
44297;BME280;51842;47.450;8.654;2024-02-28T08:40:45;95662.09;;;5.46;94.46
44297;BME280;51842;47.450;8.654;2024-02-28T08:43:11;95662.91;;;5.47;94.36
44297;BME280;51842;47.450;8.654;2024-02-28T08:45:36;95660.59;;;5.50;93.46
44297;BME280;51842;47.450;8.654;2024-02-28T08:48:03;95670.72;;;5.53;94.29
44297;BME280;51842;47.450;8.654;2024-02-28T08:50:28;95670.84;;;5.59;94.38
44297;BME280;51842;47.450;8.654;2024-02-28T08:52:55;95669.31;;;5.51;93.80
44297;BME280;51842;47.450;8.654;2024-02-28T08:55:20;95671.97;;;5.51;93.95
44297;BME280;51842;47.450;8.654;2024-02-28T08:57:49;95672.88;;;5.56;93.78
44297;BME280;51842;47.450;8.654;2024-02-28T09:00:15;95674.50;;;5.57;93.41
44297;BME280;51842;47.450;8.654;2024-02-28T09:02:41;95671.97;;;5.63;93.92
44297;BME280;51842;47.450;8.654;2024-02-28T09:05:07;95679.78;;;5.57;94.24
44297;BME280;51842;47.450;8.654;2024-02-28T09:07:35;95676.78;;;5.54;93.42
44297;BME280;51842;47.450;8.654;2024-02-28T09:10:05;95681.06;;;5.55;93.32
44297;BME280;51842;47.450;8.654;2024-02-28T09:12:32;95687.16;;;5.55;92.54
44297;BME280;51842;47.450;8.654;2024-02-28T09:14:58;95688.41;;;5.65;93.12
44297;BME280;51842;47.450;8.654;2024-02-28T09:17:24;95682.66;;;5.68;91.84
44297;BME280;51842;47.450;8.654;2024-02-28T09:19:50;95690.00;;;5.77;92.01
44297;BME280;51842;47.450;8.654;2024-02-28T09:22:17;95694.13;;;5.85;90.74
44297;BME280;51842;47.450;8.654;2024-02-28T09:24:44;95692.31;;;5.97;90.38
44297;BME280;51842;47.450;8.654;2024-02-28T09:27:10;95690.69;;;6.08;90.43
44297;BME280;51842;47.450;8.654;2024-02-28T09:29:35;95695.13;;;6.19;89.16
44297;BME280;51842;47.450;8.654;2024-02-28T09:32:01;95708.09;;;6.33;89.01
44297;BME280;51842;47.450;8.654;2024-02-28T09:34:27;95700.75;;;6.23;88.97
44297;BME280;51842;47.450;8.654;2024-02-28T09:36:53;95701.53;;;6.35;88.42
44297;BME280;51842;47.450;8.654;2024-02-28T09:39:19;95701.50;;;6.47;87.99
44297;BME280;51842;47.450;8.654;2024-02-28T09:41:48;95704.00;;;6.54;87.77
44297;BME280;51842;47.450;8.654;2024-02-28T09:44:18;95706.28;;;6.62;87.21
44297;BME280;51842;47.450;8.654;2024-02-28T09:46:49;95702.91;;;6.66;86.77
44297;BME280;51842;47.450;8.654;2024-02-28T09:49:18;95701.66;;;6.69;87.08
44297;BME280;51842;47.450;8.654;2024-02-28T09:51:49;95702.59;;;6.63;85.76
44297;BME280;51842;47.450;8.654;2024-02-28T09:54:19;95703.50;;;6.68;86.62
44297;BME280;51842;47.450;8.654;2024-02-28T09:56:45;95708.75;;;6.80;86.36
44297;BME280;51842;47.450;8.654;2024-02-28T09:59:18;95708.50;;;6.82;86.73
44297;BME280;51842;47.450;8.654;2024-02-28T10:01:56;95705.81;;;6.93;85.73
44297;BME280;51842;47.450;8.654;2024-02-28T10:04:26;95700.81;;;6.97;84.37
44297;BME280;51842;47.450;8.654;2024-02-28T10:06:53;95711.09;;;6.93;85.16
44297;BME280;51842;47.450;8.654;2024-02-28T10:09:19;95713.28;;;6.97;85.20
44297;BME280;51842;47.450;8.654;2024-02-28T10:11:45;95710.03;;;6.94;85.82
44297;BME280;51842;47.450;8.654;2024-02-28T10:14:19;95713.03;;;6.98;84.01
44297;BME280;51842;47.450;8.654;2024-02-28T10:16:46;95715.59;;;6.93;84.62
44297;BME280;51842;47.450;8.654;2024-02-28T10:19:12;95720.91;;;6.93;84.73
44297;BME280;51842;47.450;8.654;2024-02-28T10:21:38;95722.16;;;6.90;84.43
44297;BME280;51842;47.450;8.654;2024-02-28T10:24:05;95716.06;;;6.90;84.24
44297;BME280;51842;47.450;8.654;2024-02-28T10:26:31;95724.00;;;6.90;85.48
44297;BME280;51842;47.450;8.654;2024-02-28T10:29:03;95722.25;;;6.95;84.22
44297;BME280;51842;47.450;8.654;2024-02-28T10:31:32;95721.28;;;7.02;84.47
44297;BME280;51842;47.450;8.654;2024-02-28T10:34:02;95721.72;;;7.10;84.46
44297;BME280;51842;47.450;8.654;2024-02-28T10:36:32;95723.09;;;7.13;83.34
44297;BME280;51842;47.450;8.654;2024-02-28T10:39:00;95719.78;;;7.06;85.45
44297;BME280;51842;47.450;8.654;2024-02-28T10:41:26;95715.50;;;7.05;84.72
44297;BME280;51842;47.450;8.654;2024-02-28T10:43:54;95727.81;;;7.11;85.16
44297;BME280;51842;47.450;8.654;2024-02-28T10:46:20;95723.88;;;7.13;84.26
44297;BME280;51842;47.450;8.654;2024-02-28T10:48:49;95725.56;;;7.19;84.29
44297;BME280;51842;47.450;8.654;2024-02-28T10:51:26;95728.25;;;7.36;83.61
44297;BME280;51842;47.450;8.654;2024-02-28T10:54:13;95729.53;;;7.51;82.23
44297;BME280;51842;47.450;8.654;2024-02-28T10:56:42;95732.66;;;7.48;81.32
44297;BME280;51842;47.450;8.654;2024-02-28T10:59:11;95736.13;;;7.65;82.02
44297;BME280;51842;47.450;8.654;2024-02-28T11:01:43;95731.38;;;7.84;81.57
44297;BME280;51842;47.450;8.654;2024-02-28T11:04:16;95727.88;;;8.00;80.45
44297;BME280;51842;47.450;8.654;2024-02-28T11:06:56;95714.81;;;8.16;79.11
44297;BME280;51842;47.450;8.654;2024-02-28T11:09:25;95719.19;;;8.27;77.65
44297;BME280;51842;47.450;8.654;2024-02-28T11:11:52;95720.47;;;8.41;77.51
44297;BME280;51842;47.450;8.654;2024-02-28T11:14:21;95719.56;;;8.52;76.32
44297;BME280;51842;47.450;8.654;2024-02-28T11:17:00;95716.44;;;8.61;77.06
44297;BME280;51842;47.450;8.654;2024-02-28T11:19:29;95714.47;;;8.51;76.80
44297;BME280;51842;47.450;8.654;2024-02-28T11:22:00;95712.44;;;8.58;77.12
44297;BME280;51842;47.450;8.654;2024-02-28T11:24:33;95711.69;;;8.63;76.94
44297;BME280;51842;47.450;8.654;2024-02-28T11:27:01;95713.47;;;8.79;77.26
44297;BME280;51842;47.450;8.654;2024-02-28T11:29:29;95715.63;;;8.82;74.62
44297;BME280;51842;47.450;8.654;2024-02-28T11:31:55;95716.41;;;8.83;74.61
44297;BME280;51842;47.450;8.654;2024-02-28T11:34:21;95712.38;;;8.53;75.93
44297;BME280;51842;47.450;8.654;2024-02-28T11:36:51;95707.59;;;8.77;75.28
44297;BME280;51842;47.450;8.654;2024-02-28T11:39:18;95704.56;;;8.90;74.21
44297;BME280;51842;47.450;8.654;2024-02-28T11:41:46;95706.84;;;8.82;75.85
44297;BME280;51842;47.450;8.654;2024-02-28T11:44:18;95703.47;;;8.64;75.18
44297;BME280;51842;47.450;8.654;2024-02-28T11:46:49;95703.69;;;8.85;75.53
44297;BME280;51842;47.450;8.654;2024-02-28T11:49:16;95700.41;;;8.99;75.25
44297;BME280;51842;47.450;8.654;2024-02-28T11:51:43;95698.91;;;8.60;74.67
44297;BME280;51842;47.450;8.654;2024-02-28T11:54:11;95705.06;;;8.87;75.46
44297;BME280;51842;47.450;8.654;2024-02-28T11:56:41;95696.09;;;8.93;74.80
44297;BME280;51842;47.450;8.654;2024-02-28T11:59:08;95698.34;;;8.57;77.19
44297;BME280;51842;47.450;8.654;2024-02-28T12:01:40;95702.06;;;8.56;75.99
44297;BME280;51842;47.450;8.654;2024-02-28T12:04:07;95705.69;;;8.28;78.76
44297;BME280;51842;47.450;8.654;2024-02-28T12:06:35;95716.91;;;8.35;77.32
44297;BME280;51842;47.450;8.654;2024-02-28T12:09:04;95706.78;;;8.49;78.78
44297;BME280;51842;47.450;8.654;2024-02-28T12:11:33;95708.94;;;8.79;76.54
44297;BME280;51842;47.450;8.654;2024-02-28T12:13:58;95709.94;;;8.46;77.16
44297;BME280;51842;47.450;8.654;2024-02-28T12:16:25;95708.47;;;8.61;78.81
44297;BME280;51842;47.450;8.654;2024-02-28T12:18:53;95706.78;;;8.76;76.96
44297;BME280;51842;47.450;8.654;2024-02-28T12:21:20;95702.94;;;8.62;75.54
44297;BME280;51842;47.450;8.654;2024-02-28T12:23:47;95699.91;;;8.80;76.09
44297;BME280;51842;47.450;8.654;2024-02-28T12:26:20;95700.94;;;8.74;76.39
44297;BME280;51842;47.450;8.654;2024-02-28T12:28:46;95700.34;;;8.94;76.91
44297;BME280;51842;47.450;8.654;2024-02-28T12:31:12;95705.16;;;8.97;75.80
44297;BME280;51842;47.450;8.654;2024-02-28T12:33:39;95702.50;;;8.97;75.82
44297;BME280;51842;47.450;8.654;2024-02-28T12:36:05;95703.94;;;8.83;76.36
44297;BME280;51842;47.450;8.654;2024-02-28T12:38:32;95712.75;;;8.89;75.69
44297;BME280;51842;47.450;8.654;2024-02-28T12:40:58;95717.22;;;8.83;76.90
44297;BME280;51842;47.450;8.654;2024-02-28T12:43:24;95706.84;;;8.82;76.96
44297;BME280;51842;47.450;8.654;2024-02-28T12:45:51;95707.94;;;8.86;76.92
44297;BME280;51842;47.450;8.654;2024-02-28T12:48:16;95697.31;;;8.86;76.52
44297;BME280;51842;47.450;8.654;2024-02-28T12:50:42;95703.34;;;9.03;75.82
44297;BME280;51842;47.450;8.654;2024-02-28T12:53:08;95700.50;;;9.15;75.91
44297;BME280;51842;47.450;8.654;2024-02-28T12:55:34;95706.91;;;9.14;75.71
44297;BME280;51842;47.450;8.654;2024-02-28T12:58:01;95705.16;;;8.97;76.23
44297;BME280;51842;47.450;8.654;2024-02-28T13:00:30;95704.19;;;9.09;76.60
44297;BME280;51842;47.450;8.654;2024-02-28T13:02:56;95709.69;;;9.02;75.81
44297;BME280;51842;47.450;8.654;2024-02-28T13:05:21;95708.06;;;8.69;76.62